Time;durP1;ratioP1;P1;durP2;ratioP2;P2;SDS_P1;SDS_P2;PMS_P1;PMS_P2;Temp;Humidity;BMP_temperature;BMP_pressure;BME280_temperature;BME280_humidity;BME280_pressure;Samples;Min_cycle;Max_cycle;Signal;HPM_P1;HPM_P2
2022/04/23 00:01:42;;;;;;;;;;;12.30;91.70;;;;;;4971812;28;19958;-89
2022/04/23 00:04:08;;;;;;;;;;;12.30;91.70;;;;;;4972226;28;20021;-89
2022/04/23 00:06:34;;;;;;;;;;;12.30;91.70;;;;;;4972243;28;19950;-89
2022/04/23 00:09:00;;;;;;;;;;;12.30;91.80;;;;;;4972310;28;20322;-89
2022/04/23 00:11:26;;;;;;;;;;;12.10;91.40;;;;;;4971676;28;19954;-89
2022/04/23 00:13:51;;;;;;;;;;;12.10;91.60;;;;;;4971965;28;19951;-89
2022/04/23 00:16:17;;;;;;;;;;;12.00;91.70;;;;;;4971909;28;19953;-89
2022/04/23 00:18:43;;;;;;;;;;;12.10;91.90;;;;;;4972356;28;19942;-90
2022/04/23 00:21:09;;;;;;;;;;;12.10;92.20;;;;;;4971490;28;19951;-89
2022/04/23 00:23:34;;;;;;;;;;;12.10;92.30;;;;;;4970814;28;19959;-89
2022/04/23 00:26:00;;;;;;;;;;;12.20;92.30;;;;;;4971628;28;20030;-89
2022/04/23 00:28:26;;;;;;;;;;;12.20;92.30;;;;;;4971896;28;19945;-89
2022/04/23 00:30:52;;;;;;;;;;;12.30;92.30;;;;;;4971753;28;20315;-88
2022/04/23 00:33:20;;;;;;;;;;;12.30;92.00;;;;;;4971504;28;20355;-89
2022/04/23 00:35:48;;;;;;;;;;;12.30;91.80;;;;;;4971297;28;19954;-89
2022/04/23 00:38:16;;;;;;;;;;;12.20;91.80;;;;;;4971652;28;20029;-89
2022/04/23 00:40:43;;;;;;;;;;;12.10;91.90;;;;;;4971300;28;20315;-90
2022/04/23 00:43:23;;;;;;;;;;;12.00;91.90;;;;;;4971702;28;19955;-89
2022/04/23 00:45:49;;;;;;;;;;;12.00;92.00;;;;;;4971688;28;19988;-89
2022/04/23 00:48:14;;;;;;;;;;;11.80;92.20;;;;;;4971441;28;19992;-89
2022/04/23 00:50:40;;;;;;;;;;;11.70;92.20;;;;;;4971500;28;19945;-89
2022/04/23 00:53:05;;;;;;;;;;;11.60;92.40;;;;;;4971159;28;19953;-89
2022/04/23 00:55:32;;;;;;;;;;;11.50;92.70;;;;;;4971391;28;19944;-89
2022/04/23 00:57:58;;;;;;;;;;;11.50;92.70;;;;;;4971340;28;20417;-89
2022/04/23 01:00:25;;;;;;;;;;;11.40;92.70;;;;;;4971513;28;19942;-89
2022/04/23 01:02:53;;;;;;;;;;;11.40;93.00;;;;;;4970684;28;19993;-89
2022/04/23 01:05:20;;;;;;;;;;;11.30;93.00;;;;;;4971017;28;19968;-89
2022/04/23 01:07:45;;;;;;;;;;;11.30;93.10;;;;;;4971353;28;19944;-89
2022/04/23 01:10:11;;;;;;;;;;;11.20;93.20;;;;;;4970954;28;19965;-89
2022/04/23 01:12:37;;;;;;;;;;;11.20;93.30;;;;;;4971082;28;19983;-89
2022/04/23 01:15:03;;;;;;;;;;;11.10;93.40;;;;;;4971300;28;19943;-89
2022/04/23 01:17:29;;;;;;;;;;;11.10;93.50;;;;;;4971372;28;20468;-89
2022/04/23 01:19:54;;;;;;;;;;;11.00;93.60;;;;;;4971147;28;19951;-89
2022/04/23 01:22:22;;;;;;;;;;;11.00;93.70;;;;;;4970840;28;20298;-89
2022/04/23 01:24:50;;;;;;;;;;;11.10;93.70;;;;;;4971214;28;19948;-89
2022/04/23 01:27:16;;;;;;;;;;;11.10;93.70;;;;;;4970953;28;19956;-89
2022/04/23 01:29:41;;;;;;;;;;;11.00;93.70;;;;;;4970833;28;20003;-89
2022/04/23 01:32:07;;;;;;;;;;;10.90;93.70;;;;;;4970664;28;19953;-89
2022/04/23 01:34:32;;;;;;;;;;;10.90;93.90;;;;;;4970986;28;19947;-89
2022/04/23 01:36:58;;;;;;;;;;;10.80;94.00;;;;;;4973923;28;19977;-89
2022/04/23 01:39:24;;;;;;;;;;;10.80;94.10;;;;;;4974305;28;19940;-89
2022/04/23 01:41:49;;;;;;;;;;;10.80;94.20;;;;;;4974657;28;19950;-89
2022/04/23 01:44:15;;;;;;;;;;;10.80;94.20;;;;;;4974027;28;19956;-89
2022/04/23 01:46:41;;;;;;;;;;;10.80;94.20;;;;;;4974221;28;19938;-89
2022/04/23 01:49:06;;;;;;;;;;;10.70;94.20;;;;;;4973999;28;20349;-89
2022/04/23 01:51:32;;;;;;;;;;;10.70;94.40;;;;;;4974221;28;19966;-89
2022/04/23 01:53:58;;;;;;;;;;;10.70;94.50;;;;;;4973676;28;20001;-89
2022/04/23 01:56:24;;;;;;;;;;;10.70;94.50;;;;;;4973733;28;19960;-89
2022/04/23 01:58:49;;;;;;;;;;;10.60;94.40;;;;;;4974088;28;19990;-89
2022/04/23 02:01:15;;;;;;;;;;;10.60;94.80;;;;;;4973756;28;19953;-89
2022/04/23 02:03:40;;;;;;;;;;;10.70;94.90;;;;;;4974026;28;19941;-89
2022/04/23 02:06:06;;;;;;;;;;;10.70;95.10;;;;;;4973717;28;19958;-89
2022/04/23 02:08:31;;;;;;;;;;;10.80;95.10;;;;;;4973852;28;19946;-89
2022/04/23 02:10:57;;;;;;;;;;;10.80;95.20;;;;;;4973572;28;19951;-89
2022/04/23 02:13:22;;;;;;;;;;;10.80;95.20;;;;;;4973560;28;19952;-89
2022/04/23 02:15:48;;;;;;;;;;;10.80;95.20;;;;;;4973834;28;19951;-89
2022/04/23 02:18:16;;;;;;;;;;;10.80;95.10;;;;;;4973537;28;20020;-89
2022/04/23 02:20:41;;;;;;;;;;;10.70;94.70;;;;;;4973792;28;20401;-89
2022/04/23 02:23:07;;;;;;;;;;;10.50;94.50;;;;;;4973365;28;19941;-89
2022/04/23 02:25:36;;;;;;;;;;;10.40;94.50;;;;;;4973643;28;19950;-89
2022/04/23 02:28:02;;;;;;;;;;;10.40;94.60;;;;;;4973348;28;19941;-89
2022/04/23 02:30:28;;;;;;;;;;;10.40;94.90;;;;;;4973575;28;19942;-89
2022/04/23 02:32:54;;;;;;;;;;;10.40;95.00;;;;;;4973130;28;19947;-89
2022/04/23 02:35:20;;;;;;;;;;;10.50;95.00;;;;;;4973578;28;20078;-89
2022/04/23 02:37:47;;;;;;;;;;;10.50;95.00;;;;;;4973480;28;19967;-89
2022/04/23 02:40:13;;;;;;;;;;;10.40;94.80;;;;;;4973182;28;19948;-89
2022/04/23 02:42:39;;;;;;;;;;;10.30;94.90;;;;;;4973241;28;19954;-89
2022/04/23 02:45:05;;;;;;;;;;;10.20;94.80;;;;;;4972505;28;19957;-89
2022/04/23 02:47:41;;;;;;;;;;;10.10;94.90;;;;;;4972975;28;19938;-89
2022/04/23 02:50:09;;;;;;;;;;;10.10;95.10;;;;;;4973027;28;19946;-89
2022/04/23 02:52:35;;;;;;;;;;;10.10;95.30;;;;;;5040226;28;19957;-89
2022/04/23 02:55:00;;;;;;;;;;;10.20;95.40;;;;;;4973150;28;19958;-89
2022/04/23 02:57:26;;;;;;;;;;;10.20;95.50;;;;;;4973100;28;19957;-89
2022/04/23 02:59:51;;;;;;;;;;;10.20;95.50;;;;;;4973035;28;19940;-89
2022/04/23 03:02:17;;;;;;;;;;;10.30;95.50;;;;;;4973082;28;20034;-89
2022/04/23 03:04:43;;;;;;;;;;;10.30;95.50;;;;;;4973032;28;20040;-89
2022/04/23 03:07:10;;;;;;;;;;;10.30;95.50;;;;;;4973069;28;19938;-89
2022/04/23 03:09:36;;;;;;;;;;;10.30;95.30;;;;;;4972951;28;19988;-89
2022/04/23 03:12:02;;;;;;;;;;;10.20;95.20;;;;;;4972545;28;20037;-89
2022/04/23 03:14:27;;;;;;;;;;;10.10;95.10;;;;;;4972453;28;20040;-89
2022/04/23 03:16:53;;;;;;;;;;;10.00;95.20;;;;;;4972778;28;19967;-89
2022/04/23 03:19:18;;;;;;;;;;;10.10;95.30;;;;;;4972576;28;19946;-89
2022/04/23 03:21:44;;;;;;;;;;;10.10;95.30;;;;;;4972358;28;19945;-89
2022/04/23 03:24:09;;;;;;;;;;;10.00;95.20;;;;;;4972880;28;19939;-89
2022/04/23 03:26:35;;;;;;;;;;;10.10;95.10;;;;;;4972557;28;19957;-88
2022/04/23 03:29:00;;;;;;;;;;;10.00;95.10;;;;;;4972740;28;19973;-89
2022/04/23 03:31:26;;;;;;;;;;;10.00;95.00;;;;;;4972779;28;19946;-89
2022/04/23 03:33:51;;;;;;;;;;;9.90;95.00;;;;;;4972645;28;19962;-89
2022/04/23 03:36:17;;;;;;;;;;;9.90;95.10;;;;;;4972441;28;20342;-89
2022/04/23 03:38:43;;;;;;;;;;;9.90;95.00;;;;;;4972590;28;19985;-89
2022/04/23 03:41:09;;;;;;;;;;;9.80;94.90;;;;;;4972080;28;20007;-89
2022/04/23 03:43:34;;;;;;;;;;;9.80;94.80;;;;;;4972310;28;19950;-88
2022/04/23 03:46:00;;;;;;;;;;;9.90;94.70;;;;;;5038807;28;19946;-89
2022/04/23 03:48:25;;;;;;;;;;;9.90;94.70;;;;;;4972398;28;20493;-89
2022/04/23 03:50:51;;;;;;;;;;;9.80;94.50;;;;;;4972276;28;19948;-89
2022/04/23 03:53:16;;;;;;;;;;;9.70;94.30;;;;;;4972491;28;20349;-89
2022/04/23 03:55:42;;;;;;;;;;;9.60;94.00;;;;;;4972165;28;19988;-89
2022/04/23 03:58:08;;;;;;;;;;;9.60;93.80;;;;;;4971312;28;19965;-89
2022/04/23 04:00:34;;;;;;;;;;;9.50;93.70;;;;;;4972066;28;19998;-88
2022/04/23 04:02:59;;;;;;;;;;;9.60;93.50;;;;;;4972224;28;19943;-88
2022/04/23 04:05:25;;;;;;;;;;;9.60;93.40;;;;;;4971979;28;19955;-88
2022/04/23 04:07:51;;;;;;;;;;;9.60;93.40;;;;;;4972131;28;20304;-89
2022/04/23 04:10:20;;;;;;;;;;;9.50;93.60;;;;;;4971572;28;19975;-88
2022/04/23 04:12:46;;;;;;;;;;;9.50;93.60;;;;;;4971809;28;19986;-89
2022/04/23 04:15:15;;;;;;;;;;;9.50;93.60;;;;;;4972294;28;19953;-89
2022/04/23 04:17:41;;;;;;;;;;;9.50;93.70;;;;;;4972064;28;19966;-89
2022/04/23 04:20:11;;;;;;;;;;;9.60;93.80;;;;;;4971852;28;19946;-89
2022/04/23 04:22:37;;;;;;;;;;;9.50;93.90;;;;;;4972006;28;19937;-89
2022/04/23 04:25:03;;;;;;;;;;;9.50;93.70;;;;;;4971818;28;20572;-89
2022/04/23 04:27:29;;;;;;;;;;;9.40;93.60;;;;;;4971973;28;20116;-89
2022/04/23 04:29:54;;;;;;;;;;;9.50;94.00;;;;;;4971863;28;19950;-89
2022/04/23 04:32:20;;;;;;;;;;;9.60;94.20;;;;;;4971493;28;19946;-89
2022/04/23 04:34:46;;;;;;;;;;;9.80;94.30;;;;;;4981081;23;19952;-88
2022/04/23 04:37:12;;;;;;;;;;;9.90;94.50;;;;;;4989549;28;19977;-89
2022/04/23 04:39:38;;;;;;;;;;;10.00;94.50;;;;;;4990941;28;19953;-89
2022/04/23 04:42:04;;;;;;;;;;;10.10;94.60;;;;;;4990577;28;19968;-89
2022/04/23 04:44:30;;;;;;;;;;;10.10;94.30;;;;;;4971534;28;19953;-89
2022/04/23 04:46:56;;;;;;;;;;;10.00;94.00;;;;;;4978186;28;20421;-89
2022/04/23 04:49:24;;;;;;;;;;;9.90;93.80;;;;;;4973168;28;19953;-89
2022/04/23 04:51:50;;;;;;;;;;;9.80;94.00;;;;;;4990754;28;19942;-89
2022/04/23 04:54:18;;;;;;;;;;;9.70;94.20;;;;;;4990899;28;20420;-89
2022/04/23 04:56:46;;;;;;;;;;;9.80;94.50;;;;;;4990059;28;19968;-89
2022/04/23 04:59:12;;;;;;;;;;;9.90;94.60;;;;;;4990722;28;19950;-89
2022/04/23 05:01:38;;;;;;;;;;;10.10;94.70;;;;;;4990701;28;19943;-89
2022/04/23 05:04:04;;;;;;;;;;;10.20;94.60;;;;;;4990746;28;20431;-89
2022/04/23 05:06:29;;;;;;;;;;;10.30;94.50;;;;;;4973037;28;19972;-89
2022/04/23 05:08:55;;;;;;;;;;;10.20;94.00;;;;;;4991053;28;20421;-89
2022/04/23 05:11:20;;;;;;;;;;;10.20;93.90;;;;;;4993673;28;19957;-89
2022/04/23 05:13:46;;;;;;;;;;;10.10;94.20;;;;;;4964096;28;20452;-89
2022/04/23 05:16:13;;;;;;;;;;;10.10;94.30;;;;;;4993838;28;19949;-89
2022/04/23 05:18:38;;;;;;;;;;;10.20;94.50;;;;;;4993837;28;19965;-89
2022/04/23 05:21:04;;;;;;;;;;;10.30;94.60;;;;;;4993911;28;20418;-89
2022/04/23 05:23:30;;;;;;;;;;;10.40;94.70;;;;;;4993757;28;19946;-89
2022/04/23 05:25:56;;;;;;;;;;;10.50;94.70;;;;;;4993542;28;20408;-89
2022/04/23 05:28:21;;;;;;;;;;;10.60;94.70;;;;;;4993798;28;20415;-89
2022/04/23 05:30:47;;;;;;;;;;;10.60;94.70;;;;;;4993863;28;19943;-89
2022/04/23 05:33:12;;;;;;;;;;;10.60;94.70;;;;;;4993520;28;19947;-89
2022/04/23 05:35:38;;;;;;;;;;;10.70;94.80;;;;;;4993627;28;19983;-89
2022/04/23 05:38:04;;;;;;;;;;;10.70;95.00;;;;;;4988076;28;20039;-89
2022/04/23 05:40:30;;;;;;;;;;;10.80;95.10;;;;;;4993428;28;20407;-89
2022/04/23 05:42:58;;;;;;;;;;;10.80;95.30;;;;;;4987431;28;19954;-89
2022/04/23 05:45:24;;;;;;;;;;;10.90;95.40;;;;;;4993390;28;19942;-89
2022/04/23 05:47:49;;;;;;;;;;;11.00;95.40;;;;;;4989987;28;19941;-89
2022/04/23 05:50:15;;;;;;;;;;;11.10;95.50;;;;;;4990552;28;19957;-89
2022/04/23 05:52:41;;;;;;;;;;;11.20;95.60;;;;;;4992470;28;20427;-89
2022/04/23 05:55:07;;;;;;;;;;;11.30;95.60;;;;;;4989960;28;19946;-89
2022/04/23 05:57:32;;;;;;;;;;;11.40;95.50;;;;;;4991949;28;19963;-89
2022/04/23 05:59:58;;;;;;;;;;;11.50;95.40;;;;;;4992845;28;20152;-89
2022/04/23 06:02:24;;;;;;;;;;;11.60;95.40;;;;;;4968543;28;20020;-89
2022/04/23 06:04:49;;;;;;;;;;;11.70;95.30;;;;;;4983934;28;19950;-89
2022/04/23 06:07:15;;;;;;;;;;;11.80;95.10;;;;;;4991934;28;19960;-89
2022/04/23 06:09:41;;;;;;;;;;;11.90;94.90;;;;;;4992371;28;20008;-89
2022/04/23 06:12:07;;;;;;;;;;;11.90;94.70;;;;;;4973052;28;20496;-89
2022/04/23 06:14:33;;;;;;;;;;;11.90;94.60;;;;;;4989766;28;20004;-89
2022/04/23 06:16:58;;;;;;;;;;;12.00;94.60;;;;;;4989890;28;19959;-90
2022/04/23 06:19:24;;;;;;;;;;;12.10;94.40;;;;;;4991595;28;19946;-89
2022/04/23 06:21:50;;;;;;;;;;;12.20;94.20;;;;;;4986579;28;19946;-89
2022/04/23 06:24:15;;;;;;;;;;;12.30;94.10;;;;;;4988338;28;19947;-89
2022/04/23 06:26:41;;;;;;;;;;;12.40;93.90;;;;;;4989292;28;19942;-89
2022/04/23 06:29:06;;;;;;;;;;;12.40;93.80;;;;;;4989305;28;19950;-89
2022/04/23 06:31:32;;;;;;;;;;;12.40;93.60;;;;;;4991331;28;20306;-89
2022/04/23 06:33:57;;;;;;;;;;;12.40;93.40;;;;;;4987010;28;19951;-89
2022/04/23 06:36:23;;;;;;;;;;;12.40;93.30;;;;;;4990399;28;19985;-89
2022/04/23 06:38:48;;;;;;;;;;;12.40;93.40;;;;;;4991170;28;19953;-89
2022/04/23 06:41:14;;;;;;;;;;;12.40;93.60;;;;;;4990725;28;19970;-89
2022/04/23 06:43:39;;;;;;;;;;;12.40;93.50;;;;;;4991201;28;20295;-89
2022/04/23 06:46:05;;;;;;;;;;;12.40;93.60;;;;;;4989842;28;19968;-89
2022/04/23 06:48:31;;;;;;;;;;;12.40;93.70;;;;;;4987148;28;20310;-89
2022/04/23 06:50:56;;;;;;;;;;;12.40;93.80;;;;;;4990439;28;19947;-89
2022/04/23 06:53:22;;;;;;;;;;;12.40;93.90;;;;;;4992376;28;19954;-89
2022/04/23 06:55:47;;;;;;;;;;;12.40;94.00;;;;;;4992869;28;20043;-89
2022/04/23 06:58:14;;;;;;;;;;;12.50;93.80;;;;;;4992320;28;20011;-89
2022/04/23 07:00:41;;;;;;;;;;;12.50;93.60;;;;;;4992485;28;19945;-89
2022/04/23 07:03:06;;;;;;;;;;;12.50;93.50;;;;;;4991916;28;20329;-89
2022/04/23 07:05:32;;;;;;;;;;;12.60;93.60;;;;;;4989237;28;19948;-89
2022/04/23 07:07:59;;;;;;;;;;;12.70;93.50;;;;;;4984341;28;19949;-89
2022/04/23 07:10:25;;;;;;;;;;;12.70;93.40;;;;;;4989591;28;19973;-89
2022/04/23 07:12:52;;;;;;;;;;;12.90;93.50;;;;;;4988480;28;19950;-89
2022/04/23 07:15:18;;;;;;;;;;;13.00;93.30;;;;;;4977114;28;20308;-89
2022/04/23 07:17:44;;;;;;;;;;;13.20;93.00;;;;;;4977707;28;19969;-89
2022/04/23 07:20:09;;;;;;;;;;;13.40;92.70;;;;;;4990470;28;20282;-89
2022/04/23 07:22:35;;;;;;;;;;;13.60;91.90;;;;;;5005539;28;20321;-89
2022/04/23 07:25:01;;;;;;;;;;;13.80;91.30;;;;;;5074237;28;19943;-89
2022/04/23 07:27:27;;;;;;;;;;;14.00;90.30;;;;;;5032991;28;19949;-89
2022/04/23 07:29:53;;;;;;;;;;;14.20;89.90;;;;;;4991083;28;20446;-89
2022/04/23 07:32:20;;;;;;;;;;;14.40;89.10;;;;;;4991894;28;20029;-89
2022/04/23 07:37:30;;;;;;;;;;;14.80;87.10;;;;;;4984799;28;19973;-89
2022/04/23 07:40:00;;;;;;;;;;;14.90;86.00;;;;;;4988414;28;19953;-89
2022/04/23 07:42:26;;;;;;;;;;;15.00;84.50;;;;;;5021468;28;19997;-89
2022/04/23 07:44:52;;;;;;;;;;;15.00;84.00;;;;;;5037882;28;19944;-89
2022/04/23 07:47:18;;;;;;;;;;;15.00;83.30;;;;;;5025816;28;20341;-89
2022/04/23 07:49:44;;;;;;;;;;;14.90;81.60;;;;;;5017592;28;19956;-89
2022/04/23 07:52:09;;;;;;;;;;;15.00;81.50;;;;;;4978756;28;20319;-89
2022/04/23 07:54:38;;;;;;;;;;;15.20;81.00;;;;;;4978204;28;20008;-89
2022/04/23 07:57:08;;;;;;;;;;;15.30;80.70;;;;;;4990250;28;19967;-89
2022/04/23 07:59:33;;;;;;;;;;;15.50;80.20;;;;;;4987347;28;19956;-89
2022/04/23 08:02:01;;;;;;;;;;;15.70;79.80;;;;;;4988265;28;20314;-89
2022/04/23 08:04:26;;;;;;;;;;;15.60;79.60;;;;;;4989313;28;19955;-89
2022/04/23 08:06:52;;;;;;;;;;;15.60;79.90;;;;;;4986820;28;19954;-90
2022/04/23 08:09:18;;;;;;;;;;;15.60;80.60;;;;;;5058098;28;20468;-89
2022/04/23 08:11:43;;;;;;;;;;;15.50;80.10;;;;;;4990162;28;20425;-89
2022/04/23 08:14:09;;;;;;;;;;;15.50;80.50;;;;;;4986192;28;19954;-89
2022/04/23 08:16:35;;;;;;;;;;;15.40;79.90;;;;;;4990605;28;19973;-89
2022/04/23 08:19:00;;;;;;;;;;;15.40;80.50;;;;;;4972066;28;19942;-89
2022/04/23 08:21:26;;;;;;;;;;;15.50;79.60;;;;;;4971851;28;19963;-89
2022/04/23 08:23:51;;;;;;;;;;;15.60;79.50;;;;;;4983494;28;19958;-89
2022/04/23 08:26:17;;;;;;;;;;;15.70;77.70;;;;;;4990965;28;19943;-89
2022/04/23 08:31:26;;;;;;;;;;;16.10;77.30;;;;;;4990894;28;19960;-89
2022/04/23 08:33:58;;;;;;;;;;;16.30;76.10;;;;;;4979486;28;20037;-89
2022/04/23 08:36:23;;;;;;;;;;;16.40;75.40;;;;;;4989883;28;19974;-89
2022/04/23 08:38:49;;;;;;;;;;;16.20;76.80;;;;;;4985203;28;20326;-89
2022/04/23 08:41:15;;;;;;;;;;;16.10;78.30;;;;;;4971590;28;20003;-89
2022/04/23 08:43:43;;;;;;;;;;;16.10;78.40;;;;;;4962718;28;19943;-89
2022/04/23 08:46:09;;;;;;;;;;;16.00;77.40;;;;;;4991126;28;19968;-89
2022/04/23 08:48:38;;;;;;;;;;;15.90;77.00;;;;;;4990886;28;20393;-89
2022/04/23 08:51:10;;;;;;;;;;;15.70;77.70;;;;;;4990549;28;19951;-89
2022/04/23 08:53:40;;;;;;;;;;;15.70;77.50;;;;;;4990309;28;20416;-89
2022/04/23 08:56:05;;;;;;;;;;;15.70;77.50;;;;;;4987974;28;19946;-89
2022/04/23 08:58:31;;;;;;;;;;;15.80;77.80;;;;;;4990747;28;20339;-89
2022/04/23 09:00:57;;;;;;;;;;;15.70;77.40;;;;;;4990421;28;20040;-89
2022/04/23 09:03:22;;;;;;;;;;;15.60;78.40;;;;;;4989273;28;20604;-89
2022/04/23 09:05:52;;;;;;;;;;;15.60;78.00;;;;;;4989462;28;19945;-89
2022/04/23 09:08:17;;;;;;;;;;;15.60;78.90;;;;;;4984498;28;19944;-89
2022/04/23 09:10:47;;;;;;;;;;;15.80;79.60;;;;;;4990594;28;19957;-89
2022/04/23 09:13:28;;;;;;;;;;;16.10;79.80;;;;;;4989012;28;20386;-89
2022/04/23 09:24:16;;;;;;;;;;;16.50;77.20;;;;;;4981176;28;20038;-89
2022/04/23 09:26:42;;;;;;;;;;;16.40;76.60;;;;;;4988699;28;20118;-89
2022/04/23 09:29:15;;;;;;;;;;;16.50;77.30;;;;;;4988488;28;20445;-89
2022/04/23 09:31:41;;;;;;;;;;;16.60;75.90;;;;;;4988145;28;19949;-89
2022/04/23 09:34:23;;;;;;;;;;;16.70;75.70;;;;;;4976267;28;20423;-89
2022/04/23 09:37:00;;;;;;;;;;;16.80;75.50;;;;;;5036632;28;19986;-89
2022/04/23 09:39:34;;;;;;;;;;;16.90;75.60;;;;;;4989956;28;19941;-90
2022/04/23 09:42:15;;;;;;;;;;;17.10;75.70;;;;;;4988954;28;20037;-89
2022/04/23 09:44:42;;;;;;;;;;;17.30;75.00;;;;;;4979091;28;19986;-89
2022/04/23 09:47:08;;;;;;;;;;;17.40;75.20;;;;;;4988870;28;19957;-89
2022/04/23 09:49:34;;;;;;;;;;;17.50;75.40;;;;;;4989618;28;19950;-89
2022/04/23 09:52:00;;;;;;;;;;;17.30;73.40;;;;;;4990417;28;19947;-89
2022/04/23 09:54:27;;;;;;;;;;;17.30;73.90;;;;;;4985318;28;20464;-89
2022/04/23 09:56:53;;;;;;;;;;;17.40;72.20;;;;;;4989863;28;19977;-89
2022/04/23 09:59:18;;;;;;;;;;;17.10;73.80;;;;;;4975768;28;19943;-89
2022/04/23 10:01:45;;;;;;;;;;;17.10;74.60;;;;;;4991361;28;20288;-89
2022/04/23 10:04:12;;;;;;;;;;;17.30;76.70;;;;;;4991703;28;19948;-89
2022/04/23 10:06:39;;;;;;;;;;;17.10;72.70;;;;;;5044685;28;19968;-89
2022/04/23 10:09:05;;;;;;;;;;;17.10;72.70;;;;;;4990567;28;19959;-89
2022/04/23 10:11:31;;;;;;;;;;;17.20;72.90;;;;;;4989617;28;20031;-89
2022/04/23 10:14:04;;;;;;;;;;;17.20;73.90;;;;;;4991948;28;20035;-89
2022/04/23 10:16:30;;;;;;;;;;;17.30;74.00;;;;;;4989600;28;19965;-89
2022/04/23 10:18:56;;;;;;;;;;;17.30;73.50;;;;;;4972868;28;20034;-89
2022/04/23 10:21:40;;;;;;;;;;;17.30;73.00;;;;;;4971238;28;20477;-89
2022/04/23 10:24:18;;;;;;;;;;;17.10;72.60;;;;;;4986733;28;19956;-89
2022/04/23 10:26:46;;;;;;;;;;;17.10;74.90;;;;;;4991822;28;20430;-89
2022/04/23 10:29:16;;;;;;;;;;;17.10;73.10;;;;;;4992858;28;19951;-89
2022/04/23 10:31:42;;;;;;;;;;;17.20;72.40;;;;;;4992616;28;19956;-89
2022/04/23 10:34:26;;;;;;;;;;;17.40;72.30;;;;;;4991886;28;19945;-89
2022/04/23 10:37:12;;;;;;;;;;;17.70;72.50;;;;;;4980880;28;19973;-89
2022/04/23 10:39:37;;;;;;;;;;;17.80;70.10;;;;;;4988842;28;19953;-89
2022/04/23 10:42:03;;;;;;;;;;;17.90;71.50;;;;;;4984215;28;19957;-89
2022/04/23 10:44:29;;;;;;;;;;;17.90;71.80;;;;;;4985678;28;19949;-89
2022/04/23 10:46:58;;;;;;;;;;;17.90;72.40;;;;;;4990639;28;20404;-89
2022/04/23 10:49:25;;;;;;;;;;;17.80;71.40;;;;;;4991328;28;20326;-89
2022/04/23 10:51:50;;;;;;;;;;;17.80;72.90;;;;;;4975215;28;19948;-89
2022/04/23 10:54:19;;;;;;;;;;;17.80;70.50;;;;;;4992310;28;20361;-89
2022/04/23 10:56:53;;;;;;;;;;;17.90;72.90;;;;;;4984488;28;20000;-89
2022/04/23 10:59:42;;;;;;;;;;;17.90;72.10;;;;;;4991523;28;19948;-89
2022/04/23 11:02:19;;;;;;;;;;;18.10;70.00;;;;;;4977393;28;19949;-89
2022/04/23 11:13:37;;;;;;;;;;;18.20;69.10;;;;;;4991200;28;19994;-89
2022/04/23 11:16:06;;;;;;;;;;;18.10;67.80;;;;;;4980878;28;19947;-89
2022/04/23 11:18:33;;;;;;;;;;;18.40;70.10;;;;;;4981711;28;19963;-89
2022/04/23 11:21:13;;;;;;;;;;;18.80;68.90;;;;;;4991623;28;19956;-89
2022/04/23 11:23:45;;;;;;;;;;;19.00;68.40;;;;;;4982632;28;19952;-89
2022/04/23 11:26:14;;;;;;;;;;;19.10;68.10;;;;;;4990380;28;19988;-89
2022/04/23 11:28:41;;;;;;;;;;;19.40;66.40;;;;;;4990054;28;20059;-89
2022/04/23 11:31:16;;;;;;;;;;;19.60;64.90;;;;;;4991209;28;19954;-89
2022/04/23 11:33:49;;;;;;;;;;;20.00;63.80;;;;;;4990644;28;20431;-89
2022/04/23 11:36:15;;;;;;;;;;;20.10;60.60;;;;;;4991252;28;20352;-90
2022/04/23 11:38:41;;;;;;;;;;;20.20;63.30;;;;;;4990529;28;19969;-89
2022/04/23 11:41:07;;;;;;;;;;;20.30;65.90;;;;;;4991180;28;19949;-89
2022/04/23 11:43:39;;;;;;;;;;;20.50;60.60;;;;;;4989295;28;19950;-89
2022/04/23 11:46:07;;;;;;;;;;;20.70;59.70;;;;;;4989813;28;19949;-89
2022/04/23 11:48:40;;;;;;;;;;;20.40;60.20;;;;;;4991055;28;19957;-89
2022/04/23 11:51:06;;;;;;;;;;;20.30;60.90;;;;;;4991108;28;20430;-89
2022/04/23 11:53:49;;;;;;;;;;;20.00;60.20;;;;;;4989451;28;19969;-89
2022/04/23 11:56:25;;;;;;;;;;;19.90;62.20;;;;;;4987024;28;19951;-90
2022/04/23 11:58:56;;;;;;;;;;;20.00;60.00;;;;;;4985036;28;20492;-89
2022/04/23 12:01:22;;;;;;;;;;;20.20;59.00;;;;;;4970099;28;19948;-89
2022/04/23 12:03:49;;;;;;;;;;;20.20;64.40;;;;;;4970520;28;19940;-90
2022/04/23 12:06:14;;;;;;;;;;;20.40;64.30;;;;;;4967570;28;19952;-90
2022/04/23 12:08:40;;;;;;;;;;;20.30;60.50;;;;;;4983107;28;19995;-89
2022/04/23 12:11:38;;;;;;;;;;;20.20;61.00;;;;;;4984395;28;20231;-89
2022/04/23 12:14:04;;;;;;;;;;;20.00;61.50;;;;;;4994480;28;19949;-89
2022/04/23 12:16:30;;;;;;;;;;;20.30;60.20;;;;;;4983091;28;19962;-90
2022/04/23 12:19:09;;;;;;;;;;;20.90;58.00;;;;;;4964553;28;19968;-90
2022/04/23 12:21:35;;;;;;;;;;;21.40;56.80;;;;;;4984095;28;19978;-90
2022/04/23 12:24:02;;;;;;;;;;;21.70;59.40;;;;;;4985761;28;19958;-90
2022/04/23 12:26:45;;;;;;;;;;;22.00;55.90;;;;;;4984626;28;19984;-90
2022/04/23 12:42:46;;;;;;;;;;;21.70;54.90;;;;;;4984395;28;21152;-90
2022/04/23 12:45:21;;;;;;;;;;;21.50;57.90;;;;;;4982675;28;19953;-90
2022/04/23 12:47:46;;;;;;;;;;;21.70;58.40;;;;;;4985762;28;19958;-90
2022/04/23 12:50:24;;;;;;;;;;;22.00;57.30;;;;;;4983463;28;19953;-90
2022/04/23 12:52:50;;;;;;;;;;;22.30;53.40;;;;;;4984100;28;19946;-90
2022/04/23 12:55:17;;;;;;;;;;;22.40;54.70;;;;;;4989325;28;19948;-90
2022/04/23 12:57:50;;;;;;;;;;;22.30;56.10;;;;;;4985047;28;20017;-90
2022/04/23 13:00:16;;;;;;;;;;;22.20;56.60;;;;;;4989547;28;19995;-90
2022/04/23 13:02:43;;;;;;;;;;;22.30;55.80;;;;;;4980750;28;19950;-91
2022/04/23 13:05:09;;;;;;;;;;;22.80;54.60;;;;;;4983736;28;19938;-90
2022/04/23 13:10:19;;;;;;;;;;;23.70;51.90;;;;;;4986873;28;19964;-90
2022/04/23 13:12:45;;;;;;;;;;;24.20;50.50;;;;;;4987478;28;19948;-90
2022/04/23 13:15:11;;;;;;;;;;;24.40;50.80;;;;;;4986811;28;19954;-90
2022/04/23 13:17:38;;;;;;;;;;;24.50;49.80;;;;;;4986233;28;19971;-90
2022/04/23 13:20:08;;;;;;;;;;;23.80;47.00;;;;;;4985507;28;19949;-90
2022/04/23 13:22:33;;;;;;;;;;;23.30;51.60;;;;;;4987616;28;19949;-90
2022/04/23 13:24:59;;;;;;;;;;;22.90;50.90;;;;;;4988443;28;19942;-90
2022/04/23 13:27:25;;;;;;;;;;;22.70;51.50;;;;;;4985951;28;20322;-90
2022/04/23 13:29:52;;;;;;;;;;;22.40;55.30;;;;;;4970469;28;19945;-89
2022/04/23 13:32:18;;;;;;;;;;;22.10;55.40;;;;;;4988195;28;20393;-90
2022/04/23 13:34:44;;;;;;;;;;;22.30;56.30;;;;;;4991468;28;20041;-90
2022/04/23 13:37:09;;;;;;;;;;;22.30;57.20;;;;;;4988408;28;20525;-90
2022/04/23 13:39:35;;;;;;;;;;;22.30;56.20;;;;;;4992975;28;19939;-90
2022/04/23 13:42:00;;;;;;;;;;;22.60;56.50;;;;;;4988410;28;19952;-90
2022/04/23 13:44:26;;;;;;;;;;;23.10;54.70;;;;;;4985393;28;19998;-91
2022/04/23 13:46:54;;;;;;;;;;;23.50;53.90;;;;;;4989330;28;20043;-91
2022/04/23 13:49:19;;;;;;;;;;;24.30;51.80;;;;;;4990311;28;19948;-90
2022/04/23 13:51:45;;;;;;;;;;;24.50;49.90;;;;;;4990664;28;19941;-90
2022/04/23 13:54:11;;;;;;;;;;;24.50;50.30;;;;;;4997308;28;19945;-90
2022/04/23 13:56:36;;;;;;;;;;;24.70;50.00;;;;;;4991443;28;20007;-90
2022/04/23 13:59:02;;;;;;;;;;;24.90;49.20;;;;;;4991208;28;20273;-91
2022/04/23 14:01:28;;;;;;;;;;;25.40;47.10;;;;;;4992181;28;19947;-90
2022/04/23 14:12:06;;;;;;;;;;;24.70;50.40;;;;;;4977659;28;19990;-90
2022/04/23 14:14:32;;;;;;;;;;;24.40;50.20;;;;;;4990712;28;19977;-90
2022/04/23 14:16:57;;;;;;;;;;;23.90;51.60;;;;;;4991784;28;20369;-90
2022/04/23 14:19:23;;;;;;;;;;;23.90;50.70;;;;;;4992077;28;19948;-90
2022/04/23 14:21:48;;;;;;;;;;;23.20;53.30;;;;;;4974627;28;20312;-90
2022/04/23 14:24:14;;;;;;;;;;;22.60;53.80;;;;;;4992096;28;20037;-90
2022/04/23 14:26:39;;;;;;;;;;;22.30;55.90;;;;;;5002212;28;20323;-90
2022/04/23 14:29:06;;;;;;;;;;;21.90;55.30;;;;;;4989047;28;19948;-90
2022/04/23 14:31:31;;;;;;;;;;;21.30;57.20;;;;;;4988832;28;19991;-90
2022/04/23 14:33:57;;;;;;;;;;;20.80;59.20;;;;;;4991427;28;20013;-89
2022/04/23 14:36:22;;;;;;;;;;;20.40;60.80;;;;;;4991695;28;20021;-90
2022/04/23 14:38:50;;;;;;;;;;;20.30;60.60;;;;;;4971909;28;19975;-90
2022/04/23 14:41:15;;;;;;;;;;;20.30;60.90;;;;;;4991927;28;19988;-90
2022/04/23 14:43:41;;;;;;;;;;;20.30;61.10;;;;;;4991591;28;20032;-90
2022/04/23 14:46:06;;;;;;;;;;;20.10;62.60;;;;;;4991702;28;20115;-89
2022/04/23 14:48:32;;;;;;;;;;;20.10;63.60;;;;;;4990883;28;19948;-89
2022/04/23 14:53:42;;;;;;;;;;;19.70;64.50;;;;;;4990827;28;20309;-89
2022/04/23 14:56:08;;;;;;;;;;;19.70;64.50;;;;;;4989917;28;19947;-90
2022/04/23 14:58:34;;;;;;;;;;;19.70;65.30;;;;;;4990526;28;19975;-89
2022/04/23 15:01:00;;;;;;;;;;;19.60;66.50;;;;;;4991113;28;20352;-89
2022/04/23 15:03:25;;;;;;;;;;;19.50;66.70;;;;;;4990459;28;20044;-89
2022/04/23 15:05:51;;;;;;;;;;;19.50;66.90;;;;;;4989979;28;20419;-90
2022/04/23 15:08:16;;;;;;;;;;;19.50;67.00;;;;;;4998791;28;19954;-90